KUVA/UVA METAR and TAF weather

Enter ICAO airport designator
Station Type Date Time Source
KUVA METAR 2022/08/12 15:35 UTC NOAA

KUVA 121535Z AUTO 00000KT 10SM CLR 30/20 A3006 RMK AO2 T02960197


Station Type Date Time Source
KUVA Decoded METAR 2022/08/12 15:35 UTC NOAA

Uvalde, Garner Field Airport, TX, United States (KUVA) 29-12-40N 099-44-36W
Aug 12, 2022 - 11:35 AM EDT / 2022.08.12 1535 UTC
Wind: Calm:0
Visibility: 10 mile(s):0
Sky conditions: clear
Temperature: 85.3 F (29.6 C)
Dew Point: 67.5 F (19.7 C)
Relative Humidity: 55%
Pressure (altimeter): 30.06 in. Hg (1017 hPa)
ob: KUVA 121535Z AUTO 00000KT 10SM CLR 30/20 A3006 RMK AO2 T02960197
cycle: 15

Station Type Date Time Source
KUVA TAF UTC NOAA

Error!

Example: see airport list